This is the latest recevied weather packets stored in our database for station/object F4GCF-13. If no packets are shown the sender has not sent any weather packets the latest 1 day(s).
| Time | Temp. | Humidity | Pressure | Rain* | Wind** | Luminosity | Snow |
|---|---|---|---|---|---|---|---|
| 1778017358 | 10.56° C | 83% | 1014 hPa | 0 mm | 1.34 m/s, 213° | - | - |
| 1778017058 | 10.56° C | 82% | 1014 hPa | 0 mm | 1.79 m/s, 239° | - | - |
| 1778016759 | 10.56° C | 82% | 1014 hPa | 0 mm | 1.79 m/s, 252° | - | - |
| 1778016457 | 10.56° C | 81% | 1014 hPa | 0 mm | 1.79 m/s, 248° | - | - |
| 1778016160 | 10.56° C | 81% | 1015 hPa | 0 mm | 2.24 m/s, 248° | - | - |
| 1778015558 | 10.56° C | 80% | 1015 hPa | 0 mm | 0.89 m/s, 251° | - | - |
| 1778015324 | 11.11° C | 79% | 1015 hPa | 0 mm | 1.34 m/s, 252° | - | - |
| 1778015259 | 11.11° C | 79% | 1015 hPa | 0 mm | 1.34 m/s, 252° | - | - |
| 1778014957 | 11.11° C | 79% | 1015 hPa | 0 mm | 2.24 m/s, 255° | - | - |
| 1778014699 | 11.11° C | 78% | 1015 hPa | 0 mm | 1.79 m/s, 252° | - | - |
| 1778014659 | 11.11° C | 78% | 1015 hPa | 0 mm | 1.79 m/s, 252° | - | - |
| 1778013760 | 11.67° C | 76% | 1014 hPa | 0 mm | 1.34 m/s, 244° | - | - |
| 1778013460 | 11.67° C | 76% | 1014 hPa | 0 mm | 1.34 m/s, 248° | - | - |
| 1778013159 | 11.67° C | 76% | 1014 hPa | 0 mm | 1.79 m/s, 248° | - | - |
| 1778012559 | 11.67° C | 75% | 1014 hPa | 0 mm | 2.68 m/s, 253° | - | - |
| 1778012259 | 11.67° C | 75% | 1014 hPa | 0 mm | 1.79 m/s, 248° | - | - |
| 1778011661 | 12.22° C | 74% | 1014 hPa | 0 mm | 1.79 m/s, 247° | - | - |
| 1778011059 | 12.22° C | 74% | 1014 hPa | 0 mm | 1.79 m/s, 253° | - | - |
| 1778010759 | 12.22° C | 74% | 1014 hPa | 0 mm | 1.79 m/s, 254° | - | - |
| 1778010458 | 12.78° C | 74% | 1014 hPa | 0 mm | 1.79 m/s, 261° | - | - |
| 1778010160 | 12.78° C | 73% | 1014 hPa | 0 mm | 2.24 m/s, 248° | - | - |
| 1778009861 | 12.78° C | 73% | 1014 hPa | 0 mm | 1.79 m/s, 256° | - | - |
| 1778008957 | 12.78° C | 73% | 1014 hPa | 0 mm | 1.79 m/s, 248° | - | - |
| 1778008660 | 12.78° C | 72% | 1014 hPa | 0 mm | 1.34 m/s, 248° | - | - |
| 1778005959 | 14.44° C | 67% | 1014 hPa | 0 mm | 1.34 m/s, 312° | - | - |
* Rain latest hour (hover to see other rain measurements)
** Current wind speed in m/s (hover to see current wind gust speed)